sensor_id;sensor_type;location;lat;lon;timestamp;P1;durP1;ratioP1;P2;durP2;ratioP2
25615;SDS011;13482;48.234;13.006;2022-07-03T00:02:02;1.85;;;1.10;;
25615;SDS011;13482;48.234;13.006;2022-07-03T00:04:30;1.38;;;0.95;;
25615;SDS011;13482;48.234;13.006;2022-07-03T00:06:57;1.77;;;1.20;;
25615;SDS011;13482;48.234;13.006;2022-07-03T00:09:24;1.85;;;1.00;;
25615;SDS011;13482;48.234;13.006;2022-07-03T00:11:51;2.65;;;1.13;;
25615;SDS011;13482;48.234;13.006;2022-07-03T00:14:19;1.33;;;0.93;;
25615;SDS011;13482;48.234;13.006;2022-07-03T00:16:46;2.33;;;1.20;;
25615;SDS011;13482;48.234;13.006;2022-07-03T00:19:13;2.70;;;1.10;;
25615;SDS011;13482;48.234;13.006;2022-07-03T00:24:19;1.45;;;1.02;;
25615;SDS011;13482;48.234;13.006;2022-07-03T00:29:26;1.38;;;0.80;;
25615;SDS011;13482;48.234;13.006;2022-07-03T00:32:05;2.05;;;1.13;;
25615;SDS011;13482;48.234;13.006;2022-07-03T00:37:06;1.63;;;0.93;;
25615;SDS011;13482;48.234;13.006;2022-07-03T00:39:36;1.60;;;1.10;;
25615;SDS011;13482;48.234;13.006;2022-07-03T00:42:06;1.83;;;1.25;;
25615;SDS011;13482;48.234;13.006;2022-07-03T00:44:42;5.45;;;1.27;;
25615;SDS011;13482;48.234;13.006;2022-07-03T00:47:18;1.60;;;1.00;;
25615;SDS011;13482;48.234;13.006;2022-07-03T00:49:49;1.90;;;1.27;;
25615;SDS011;13482;48.234;13.006;2022-07-03T00:52:19;2.30;;;1.17;;
25615;SDS011;13482;48.234;13.006;2022-07-03T00:54:52;1.75;;;0.93;;
25615;SDS011;13482;48.234;13.006;2022-07-03T00:57:22;3.40;;;1.10;;
25615;SDS011;13482;48.234;13.006;2022-07-03T00:59:51;1.45;;;0.90;;
25615;SDS011;13482;48.234;13.006;2022-07-03T01:08:08;2.17;;;0.98;;
25615;SDS011;13482;48.234;13.006;2022-07-03T01:11:05;2.70;;;1.25;;
25615;SDS011;13482;48.234;13.006;2022-07-03T01:16:57;1.98;;;1.15;;
25615;SDS011;13482;48.234;13.006;2022-07-03T01:28:03;1.92;;;1.15;;
25615;SDS011;13482;48.234;13.006;2022-07-03T01:30:48;1.90;;;1.20;;
25615;SDS011;13482;48.234;13.006;2022-07-03T01:33:19;2.95;;;1.13;;
25615;SDS011;13482;48.234;13.006;2022-07-03T01:38:31;2.13;;;1.30;;
25615;SDS011;13482;48.234;13.006;2022-07-03T01:41:07;3.22;;;1.48;;
25615;SDS011;13482;48.234;13.006;2022-07-03T01:43:40;2.97;;;1.30;;
25615;SDS011;13482;48.234;13.006;2022-07-03T01:46:13;2.60;;;1.35;;
25615;SDS011;13482;48.234;13.006;2022-07-03T01:48:44;3.37;;;1.10;;
25615;SDS011;13482;48.234;13.006;2022-07-03T01:51:16;1.85;;;1.13;;
25615;SDS011;13482;48.234;13.006;2022-07-03T01:53:44;2.72;;;1.20;;
25615;SDS011;13482;48.234;13.006;2022-07-03T01:56:15;1.10;;;0.82;;
25615;SDS011;13482;48.234;13.006;2022-07-03T01:58:44;3.22;;;1.25;;
25615;SDS011;13482;48.234;13.006;2022-07-03T02:03:58;2.42;;;1.10;;
25615;SDS011;13482;48.234;13.006;2022-07-03T02:06:43;1.45;;;1.08;;
25615;SDS011;13482;48.234;13.006;2022-07-03T02:09:17;2.08;;;1.17;;
25615;SDS011;13482;48.234;13.006;2022-07-03T02:12:11;1.80;;;1.08;;
25615;SDS011;13482;48.234;13.006;2022-07-03T02:14:40;2.13;;;1.02;;
25615;SDS011;13482;48.234;13.006;2022-07-03T02:17:25;2.22;;;1.20;;
25615;SDS011;13482;48.234;13.006;2022-07-03T02:19:57;2.45;;;1.42;;
25615;SDS011;13482;48.234;13.006;2022-07-03T02:25:04;2.42;;;1.23;;
25615;SDS011;13482;48.234;13.006;2022-07-03T02:27:43;1.90;;;1.20;;
25615;SDS011;13482;48.234;13.006;2022-07-03T02:30:17;3.50;;;1.25;;
25615;SDS011;13482;48.234;13.006;2022-07-03T02:32:49;1.95;;;1.20;;
25615;SDS011;13482;48.234;13.006;2022-07-03T02:35:25;1.80;;;1.00;;
25615;SDS011;13482;48.234;13.006;2022-07-03T02:38:03;1.70;;;1.20;;
25615;SDS011;13482;48.234;13.006;2022-07-03T02:43:25;3.70;;;1.00;;
25615;SDS011;13482;48.234;13.006;2022-07-03T02:46:10;1.20;;;0.90;;
25615;SDS011;13482;48.234;13.006;2022-07-03T02:51:54;1.30;;;0.93;;
25615;SDS011;13482;48.234;13.006;2022-07-03T02:54:29;2.33;;;0.93;;
25615;SDS011;13482;48.234;13.006;2022-07-03T02:57:13;1.33;;;0.90;;
25615;SDS011;13482;48.234;13.006;2022-07-03T02:59:58;2.10;;;1.17;;
25615;SDS011;13482;48.234;13.006;2022-07-03T03:10:18;1.42;;;0.90;;
25615;SDS011;13482;48.234;13.006;2022-07-03T03:12:50;1.50;;;1.00;;
25615;SDS011;13482;48.234;13.006;2022-07-03T03:15:39;1.48;;;1.02;;
25615;SDS011;13482;48.234;13.006;2022-07-03T03:18:36;2.47;;;1.20;;
25615;SDS011;13482;48.234;13.006;2022-07-03T03:21:08;2.70;;;1.05;;
25615;SDS011;13482;48.234;13.006;2022-07-03T03:23:50;6.38;;;1.30;;
25615;SDS011;13482;48.234;13.006;2022-07-03T03:26:22;1.33;;;1.10;;
25615;SDS011;13482;48.234;13.006;2022-07-03T03:28:54;2.88;;;1.13;;
25615;SDS011;13482;48.234;13.006;2022-07-03T03:31:21;4.93;;;1.00;;
25615;SDS011;13482;48.234;13.006;2022-07-03T03:33:50;4.65;;;1.20;;
25615;SDS011;13482;48.234;13.006;2022-07-03T03:36:18;2.65;;;1.40;;
25615;SDS011;13482;48.234;13.006;2022-07-03T03:38:47;1.27;;;0.95;;
25615;SDS011;13482;48.234;13.006;2022-07-03T03:41:15;2.78;;;1.38;;
25615;SDS011;13482;48.234;13.006;2022-07-03T03:43:43;1.88;;;1.10;;
25615;SDS011;13482;48.234;13.006;2022-07-03T03:46:11;2.10;;;1.40;;
25615;SDS011;13482;48.234;13.006;2022-07-03T03:48:41;1.88;;;0.93;;
25615;SDS011;13482;48.234;13.006;2022-07-03T03:51:08;2.42;;;1.23;;
25615;SDS011;13482;48.234;13.006;2022-07-03T03:53:36;1.83;;;1.00;;
25615;SDS011;13482;48.234;13.006;2022-07-03T03:56:05;2.40;;;1.17;;
25615;SDS011;13482;48.234;13.006;2022-07-03T03:58:39;1.45;;;1.00;;
25615;SDS011;13482;48.234;13.006;2022-07-03T04:01:07;1.65;;;1.00;;
25615;SDS011;13482;48.234;13.006;2022-07-03T04:03:36;1.48;;;1.08;;
25615;SDS011;13482;48.234;13.006;2022-07-03T04:06:06;1.90;;;1.20;;
25615;SDS011;13482;48.234;13.006;2022-07-03T04:08:33;1.80;;;1.10;;
25615;SDS011;13482;48.234;13.006;2022-07-03T04:11:01;2.17;;;1.20;;
25615;SDS011;13482;48.234;13.006;2022-07-03T04:13:28;1.33;;;1.17;;
25615;SDS011;13482;48.234;13.006;2022-07-03T04:15:56;2.63;;;1.20;;
25615;SDS011;13482;48.234;13.006;2022-07-03T04:18:23;1.48;;;1.17;;
25615;SDS011;13482;48.234;13.006;2022-07-03T04:20:56;1.50;;;1.00;;
25615;SDS011;13482;48.234;13.006;2022-07-03T04:23:23;1.40;;;1.10;;
25615;SDS011;13482;48.234;13.006;2022-07-03T04:25:50;1.38;;;0.90;;
25615;SDS011;13482;48.234;13.006;2022-07-03T04:28:17;1.40;;;0.98;;
25615;SDS011;13482;48.234;13.006;2022-07-03T04:30:46;1.40;;;0.90;;
25615;SDS011;13482;48.234;13.006;2022-07-03T04:33:14;1.50;;;1.10;;
25615;SDS011;13482;48.234;13.006;2022-07-03T04:35:42;2.55;;;1.13;;
25615;SDS011;13482;48.234;13.006;2022-07-03T04:38:09;1.83;;;1.00;;
25615;SDS011;13482;48.234;13.006;2022-07-03T04:40:36;1.42;;;1.02;;
25615;SDS011;13482;48.234;13.006;2022-07-03T04:43:03;1.42;;;0.90;;
25615;SDS011;13482;48.234;13.006;2022-07-03T04:45:30;1.83;;;0.90;;
25615;SDS011;13482;48.234;13.006;2022-07-03T04:47:57;1.38;;;1.10;;
25615;SDS011;13482;48.234;13.006;2022-07-03T04:50:25;2.70;;;1.40;;
25615;SDS011;13482;48.234;13.006;2022-07-03T04:52:52;1.80;;;1.30;;
25615;SDS011;13482;48.234;13.006;2022-07-03T04:55:19;2.60;;;1.35;;
25615;SDS011;13482;48.234;13.006;2022-07-03T04:57:46;1.67;;;1.30;;
25615;SDS011;13482;48.234;13.006;2022-07-03T05:00:13;1.90;;;1.40;;
25615;SDS011;13482;48.234;13.006;2022-07-03T05:02:41;2.65;;;1.23;;
25615;SDS011;13482;48.234;13.006;2022-07-03T05:05:08;1.83;;;1.10;;
25615;SDS011;13482;48.234;13.006;2022-07-03T05:07:35;1.83;;;1.20;;
25615;SDS011;13482;48.234;13.006;2022-07-03T05:10:02;1.75;;;1.27;;
25615;SDS011;13482;48.234;13.006;2022-07-03T05:12:30;2.00;;;1.20;;
25615;SDS011;13482;48.234;13.006;2022-07-03T05:15:04;2.15;;;1.20;;
25615;SDS011;13482;48.234;13.006;2022-07-03T05:17:33;2.40;;;1.50;;
25615;SDS011;13482;48.234;13.006;2022-07-03T05:20:00;1.85;;;1.42;;
25615;SDS011;13482;48.234;13.006;2022-07-03T05:22:48;1.85;;;1.40;;
25615;SDS011;13482;48.234;13.006;2022-07-03T05:25:15;2.85;;;1.50;;
25615;SDS011;13482;48.234;13.006;2022-07-03T05:27:42;2.08;;;1.30;;
25615;SDS011;13482;48.234;13.006;2022-07-03T05:30:10;2.10;;;1.30;;
25615;SDS011;13482;48.234;13.006;2022-07-03T05:32:38;2.03;;;1.50;;
25615;SDS011;13482;48.234;13.006;2022-07-03T05:35:06;1.85;;;1.40;;
25615;SDS011;13482;48.234;13.006;2022-07-03T05:37:33;2.33;;;1.30;;
25615;SDS011;13482;48.234;13.006;2022-07-03T05:40:00;2.03;;;1.50;;
25615;SDS011;13482;48.234;13.006;2022-07-03T05:42:32;3.67;;;1.65;;
25615;SDS011;13482;48.234;13.006;2022-07-03T05:45:00;3.92;;;1.50;;
25615;SDS011;13482;48.234;13.006;2022-07-03T05:47:28;4.05;;;1.85;;
25615;SDS011;13482;48.234;13.006;2022-07-03T05:49:55;2.85;;;1.92;;
25615;SDS011;13482;48.234;13.006;2022-07-03T05:52:22;2.53;;;1.67;;
25615;SDS011;13482;48.234;13.006;2022-07-03T05:54:49;2.78;;;1.80;;
25615;SDS011;13482;48.234;13.006;2022-07-03T05:57:16;2.00;;;1.50;;
25615;SDS011;13482;48.234;13.006;2022-07-03T05:59:43;1.67;;;1.45;;
25615;SDS011;13482;48.234;13.006;2022-07-03T06:02:13;2.25;;;1.77;;
25615;SDS011;13482;48.234;13.006;2022-07-03T06:04:41;3.78;;;1.40;;
25615;SDS011;13482;48.234;13.006;2022-07-03T06:07:08;2.30;;;1.50;;
25615;SDS011;13482;48.234;13.006;2022-07-03T06:09:35;2.03;;;1.50;;
25615;SDS011;13482;48.234;13.006;2022-07-03T06:12:02;1.50;;;1.23;;
25615;SDS011;13482;48.234;13.006;2022-07-03T06:14:30;2.38;;;1.33;;
25615;SDS011;13482;48.234;13.006;2022-07-03T06:16:57;2.22;;;1.60;;
25615;SDS011;13482;48.234;13.006;2022-07-03T06:19:24;2.83;;;1.27;;
25615;SDS011;13482;48.234;13.006;2022-07-03T06:21:52;1.83;;;1.40;;
25615;SDS011;13482;48.234;13.006;2022-07-03T06:24:19;2.28;;;1.60;;
25615;SDS011;13482;48.234;13.006;2022-07-03T06:26:46;1.80;;;1.42;;
25615;SDS011;13482;48.234;13.006;2022-07-03T06:29:14;2.28;;;1.52;;
25615;SDS011;13482;48.234;13.006;2022-07-03T06:31:41;1.83;;;1.40;;
25615;SDS011;13482;48.234;13.006;2022-07-03T06:34:08;1.73;;;1.30;;
25615;SDS011;13482;48.234;13.006;2022-07-03T06:36:36;1.92;;;1.60;;
25615;SDS011;13482;48.234;13.006;2022-07-03T06:39:04;3.20;;;1.60;;
25615;SDS011;13482;48.234;13.006;2022-07-03T06:41:31;1.80;;;1.30;;
25615;SDS011;13482;48.234;13.006;2022-07-03T06:43:58;2.05;;;1.52;;
25615;SDS011;13482;48.234;13.006;2022-07-03T06:46:25;1.80;;;1.52;;
25615;SDS011;13482;48.234;13.006;2022-07-03T06:48:52;1.95;;;1.35;;
25615;SDS011;13482;48.234;13.006;2022-07-03T06:51:19;1.75;;;1.30;;
25615;SDS011;13482;48.234;13.006;2022-07-03T06:53:46;3.13;;;1.30;;
25615;SDS011;13482;48.234;13.006;2022-07-03T06:56:16;1.85;;;1.20;;
25615;SDS011;13482;48.234;13.006;2022-07-03T06:58:43;1.83;;;1.30;;
25615;SDS011;13482;48.234;13.006;2022-07-03T07:01:10;1.50;;;1.00;;
25615;SDS011;13482;48.234;13.006;2022-07-03T07:03:37;1.98;;;1.48;;
25615;SDS011;13482;48.234;13.006;2022-07-03T07:06:05;1.67;;;1.30;;
25615;SDS011;13482;48.234;13.006;2022-07-03T07:08:32;1.88;;;1.23;;
25615;SDS011;13482;48.234;13.006;2022-07-03T07:10:59;1.70;;;1.30;;
25615;SDS011;13482;48.234;13.006;2022-07-03T07:13:26;2.10;;;1.35;;
25615;SDS011;13482;48.234;13.006;2022-07-03T07:15:54;3.47;;;1.50;;
25615;SDS011;13482;48.234;13.006;2022-07-03T07:18:21;2.60;;;1.50;;
25615;SDS011;13482;48.234;13.006;2022-07-03T07:20:48;3.28;;;1.80;;
25615;SDS011;13482;48.234;13.006;2022-07-03T07:23:15;2.63;;;1.40;;
25615;SDS011;13482;48.234;13.006;2022-07-03T07:25:42;1.65;;;1.15;;
25615;SDS011;13482;48.234;13.006;2022-07-03T07:28:10;2.50;;;1.60;;
25615;SDS011;13482;48.234;13.006;2022-07-03T07:30:37;2.63;;;1.40;;
25615;SDS011;13482;48.234;13.006;2022-07-03T07:33:07;2.15;;;1.33;;
25615;SDS011;13482;48.234;13.006;2022-07-03T07:35:35;1.77;;;1.25;;
25615;SDS011;13482;48.234;13.006;2022-07-03T07:38:03;3.05;;;1.45;;
25615;SDS011;13482;48.234;13.006;2022-07-03T07:40:34;2.30;;;1.13;;
25615;SDS011;13482;48.234;13.006;2022-07-03T07:43:01;1.98;;;1.20;;
25615;SDS011;13482;48.234;13.006;2022-07-03T07:45:28;2.97;;;1.13;;
25615;SDS011;13482;48.234;13.006;2022-07-03T07:47:55;1.80;;;1.10;;
25615;SDS011;13482;48.234;13.006;2022-07-03T07:50:22;1.90;;;1.10;;
25615;SDS011;13482;48.234;13.006;2022-07-03T07:52:50;1.77;;;1.20;;
25615;SDS011;13482;48.234;13.006;2022-07-03T07:55:17;2.03;;;1.02;;
25615;SDS011;13482;48.234;13.006;2022-07-03T07:57:44;2.90;;;1.25;;
25615;SDS011;13482;48.234;13.006;2022-07-03T08:00:16;1.40;;;0.90;;
25615;SDS011;13482;48.234;13.006;2022-07-03T08:02:45;1.55;;;1.13;;
25615;SDS011;13482;48.234;13.006;2022-07-03T08:05:31;1.67;;;1.10;;
25615;SDS011;13482;48.234;13.006;2022-07-03T08:08:09;1.40;;;1.08;;
25615;SDS011;13482;48.234;13.006;2022-07-03T08:13:10;2.00;;;1.00;;
25615;SDS011;13482;48.234;13.006;2022-07-03T08:15:39;2.17;;;1.10;;
25615;SDS011;13482;48.234;13.006;2022-07-03T08:18:08;1.15;;;0.90;;
25615;SDS011;13482;48.234;13.006;2022-07-03T08:20:35;1.17;;;0.95;;
25615;SDS011;13482;48.234;13.006;2022-07-03T08:23:04;1.60;;;1.10;;
25615;SDS011;13482;48.234;13.006;2022-07-03T08:25:32;2.40;;;1.27;;
25615;SDS011;13482;48.234;13.006;2022-07-03T08:27:59;1.40;;;1.00;;
25615;SDS011;13482;48.234;13.006;2022-07-03T08:30:27;1.30;;;1.00;;
25615;SDS011;13482;48.234;13.006;2022-07-03T08:32:55;1.35;;;0.90;;
25615;SDS011;13482;48.234;13.006;2022-07-03T08:35:24;1.73;;;1.02;;
25615;SDS011;13482;48.234;13.006;2022-07-03T08:37:53;1.33;;;0.82;;
25615;SDS011;13482;48.234;13.006;2022-07-03T08:40:21;1.00;;;0.90;;
25615;SDS011;13482;48.234;13.006;2022-07-03T08:42:49;1.70;;;1.00;;
25615;SDS011;13482;48.234;13.006;2022-07-03T08:45:24;1.23;;;1.00;;
25615;SDS011;13482;48.234;13.006;2022-07-03T08:47:54;1.33;;;1.00;;
25615;SDS011;13482;48.234;13.006;2022-07-03T08:50:24;1.83;;;0.90;;
25615;SDS011;13482;48.234;13.006;2022-07-03T08:52:52;0.95;;;0.85;;
25615;SDS011;13482;48.234;13.006;2022-07-03T08:55:19;1.33;;;0.90;;
25615;SDS011;13482;48.234;13.006;2022-07-03T08:57:47;1.63;;;1.00;;
25615;SDS011;13482;48.234;13.006;2022-07-03T09:00:16;1.23;;;0.95;;
25615;SDS011;13482;48.234;13.006;2022-07-03T09:02:46;1.40;;;0.90;;
25615;SDS011;13482;48.234;13.006;2022-07-03T09:05:16;1.33;;;0.90;;
25615;SDS011;13482;48.234;13.006;2022-07-03T09:07:44;1.30;;;1.00;;
25615;SDS011;13482;48.234;13.006;2022-07-03T09:10:16;1.30;;;0.85;;
25615;SDS011;13482;48.234;13.006;2022-07-03T09:12:46;1.08;;;0.95;;
25615;SDS011;13482;48.234;13.006;2022-07-03T09:15:14;2.08;;;1.10;;
25615;SDS011;13482;48.234;13.006;2022-07-03T09:17:59;1.40;;;1.05;;
25615;SDS011;13482;48.234;13.006;2022-07-03T09:20:30;1.63;;;0.90;;
25615;SDS011;13482;48.234;13.006;2022-07-03T09:23:17;1.48;;;0.90;;
25615;SDS011;13482;48.234;13.006;2022-07-03T09:25:50;1.15;;;0.80;;
25615;SDS011;13482;48.234;13.006;2022-07-03T09:31:15;1.20;;;0.90;;
25615;SDS011;13482;48.234;13.006;2022-07-03T09:36:51;1.45;;;0.82;;
25615;SDS011;13482;48.234;13.006;2022-07-03T09:39:30;1.90;;;0.93;;
25615;SDS011;13482;48.234;13.006;2022-07-03T09:42:04;1.77;;;0.90;;
25615;SDS011;13482;48.234;13.006;2022-07-03T09:49:44;0.80;;;0.60;;
25615;SDS011;13482;48.234;13.006;2022-07-03T09:57:45;1.13;;;0.90;;
25615;SDS011;13482;48.234;13.006;2022-07-03T10:00:26;1.80;;;0.90;;
25615;SDS011;13482;48.234;13.006;2022-07-03T10:03:05;1.08;;;0.70;;
25615;SDS011;13482;48.234;13.006;2022-07-03T10:05:35;0.98;;;0.80;;
25615;SDS011;13482;48.234;13.006;2022-07-03T10:08:06;1.05;;;0.80;;
25615;SDS011;13482;48.234;13.006;2022-07-03T10:10:40;1.55;;;0.80;;
25615;SDS011;13482;48.234;13.006;2022-07-03T10:13:12;1.02;;;0.80;;
25615;SDS011;13482;48.234;13.006;2022-07-03T10:15:42;1.40;;;0.80;;
25615;SDS011;13482;48.234;13.006;2022-07-03T10:18:12;0.98;;;0.68;;
25615;SDS011;13482;48.234;13.006;2022-07-03T10:20:45;1.73;;;0.68;;
25615;SDS011;13482;48.234;13.006;2022-07-03T10:23:20;1.88;;;0.70;;
25615;SDS011;13482;48.234;13.006;2022-07-03T10:25:49;1.05;;;0.60;;
25615;SDS011;13482;48.234;13.006;2022-07-03T10:28:17;1.00;;;0.60;;
25615;SDS011;13482;48.234;13.006;2022-07-03T10:30:48;0.90;;;0.70;;
25615;SDS011;13482;48.234;13.006;2022-07-03T10:33:16;1.00;;;0.60;;
25615;SDS011;13482;48.234;13.006;2022-07-03T10:35:48;0.70;;;0.52;;
25615;SDS011;13482;48.234;13.006;2022-07-03T10:38:23;1.23;;;0.70;;
25615;SDS011;13482;48.234;13.006;2022-07-03T10:41:09;0.63;;;0.52;;
25615;SDS011;13482;48.234;13.006;2022-07-03T10:44:15;0.82;;;0.60;;
25615;SDS011;13482;48.234;13.006;2022-07-03T10:47:01;0.80;;;0.60;;
25615;SDS011;13482;48.234;13.006;2022-07-03T10:49:33;1.63;;;0.70;;
25615;SDS011;13482;48.234;13.006;2022-07-03T10:52:01;0.77;;;0.52;;
25615;SDS011;13482;48.234;13.006;2022-07-03T10:54:34;1.15;;;0.50;;
25615;SDS011;13482;48.234;13.006;2022-07-03T10:57:18;0.95;;;0.68;;
25615;SDS011;13482;48.234;13.006;2022-07-03T11:18:26;0.70;;;0.60;;
25615;SDS011;13482;48.234;13.006;2022-07-03T11:23:56;0.80;;;0.50;;
25615;SDS011;13482;48.234;13.006;2022-07-03T11:26:38;1.48;;;0.70;;
25615;SDS011;13482;48.234;13.006;2022-07-03T11:29:05;0.70;;;0.60;;
25615;SDS011;13482;48.234;13.006;2022-07-03T11:31:32;0.70;;;0.50;;
25615;SDS011;13482;48.234;13.006;2022-07-03T11:34:00;0.90;;;0.60;;
25615;SDS011;13482;48.234;13.006;2022-07-03T11:36:28;0.90;;;0.50;;
25615;SDS011;13482;48.234;13.006;2022-07-03T11:41:25;0.82;;;0.70;;
25615;SDS011;13482;48.234;13.006;2022-07-03T11:43:59;1.55;;;0.60;;
25615;SDS011;13482;48.234;13.006;2022-07-03T11:46:32;0.40;;;0.40;;
25615;SDS011;13482;48.234;13.006;2022-07-03T11:51:53;1.38;;;0.68;;
25615;SDS011;13482;48.234;13.006;2022-07-03T11:54:26;0.60;;;0.50;;
25615;SDS011;13482;48.234;13.006;2022-07-03T11:57:00;0.88;;;0.50;;
25615;SDS011;13482;48.234;13.006;2022-07-03T11:59:27;0.52;;;0.50;;
25615;SDS011;13482;48.234;13.006;2022-07-03T12:02:00;0.93;;;0.50;;
25615;SDS011;13482;48.234;13.006;2022-07-03T12:04:30;0.50;;;0.40;;
25615;SDS011;13482;48.234;13.006;2022-07-03T12:06:58;1.58;;;0.85;;
25615;SDS011;13482;48.234;13.006;2022-07-03T12:09:28;0.55;;;0.50;;
25615;SDS011;13482;48.234;13.006;2022-07-03T12:14:48;0.50;;;0.43;;
25615;SDS011;13482;48.234;13.006;2022-07-03T12:17:21;0.50;;;0.50;;
25615;SDS011;13482;48.234;13.006;2022-07-03T12:19:52;2.95;;;0.60;;
25615;SDS011;13482;48.234;13.006;2022-07-03T12:22:28;1.48;;;0.60;;
25615;SDS011;13482;48.234;13.006;2022-07-03T12:27:30;1.38;;;0.75;;
25615;SDS011;13482;48.234;13.006;2022-07-03T12:30:16;1.00;;;0.50;;
25615;SDS011;13482;48.234;13.006;2022-07-03T12:32:54;0.93;;;0.68;;
25615;SDS011;13482;48.234;13.006;2022-07-03T12:35:23;1.10;;;0.60;;
25615;SDS011;13482;48.234;13.006;2022-07-03T12:37:52;1.13;;;0.60;;
25615;SDS011;13482;48.234;13.006;2022-07-03T12:40:20;0.70;;;0.52;;
25615;SDS011;13482;48.234;13.006;2022-07-03T12:42:49;0.90;;;0.60;;
25615;SDS011;13482;48.234;13.006;2022-07-03T12:45:18;2.92;;;0.70;;
25615;SDS011;13482;48.234;13.006;2022-07-03T12:48:00;0.80;;;0.40;;
25615;SDS011;13482;48.234;13.006;2022-07-03T12:50:46;1.00;;;0.50;;
25615;SDS011;13482;48.234;13.006;2022-07-03T12:53:31;0.50;;;0.50;;
25615;SDS011;13482;48.234;13.006;2022-07-03T12:56:00;0.55;;;0.50;;
25615;SDS011;13482;48.234;13.006;2022-07-03T12:58:36;1.05;;;0.60;;
25615;SDS011;13482;48.234;13.006;2022-07-03T13:01:29;1.20;;;0.60;;
25615;SDS011;13482;48.234;13.006;2022-07-03T13:04:08;0.98;;;0.52;;
25615;SDS011;13482;48.234;13.006;2022-07-03T13:06:41;0.95;;;0.52;;
25615;SDS011;13482;48.234;13.006;2022-07-03T13:09:14;0.70;;;0.55;;
25615;SDS011;13482;48.234;13.006;2022-07-03T13:11:41;0.85;;;0.50;;
25615;SDS011;13482;48.234;13.006;2022-07-03T13:16:40;1.05;;;0.70;;
25615;SDS011;13482;48.234;13.006;2022-07-03T13:19:15;0.95;;;0.60;;
25615;SDS011;13482;48.234;13.006;2022-07-03T13:21:45;1.85;;;0.60;;
25615;SDS011;13482;48.234;13.006;2022-07-03T13:24:14;1.05;;;0.60;;
25615;SDS011;13482;48.234;13.006;2022-07-03T13:26:43;1.63;;;0.60;;
25615;SDS011;13482;48.234;13.006;2022-07-03T13:29:18;1.10;;;0.70;;
25615;SDS011;13482;48.234;13.006;2022-07-03T13:31:45;0.98;;;0.50;;
25615;SDS011;13482;48.234;13.006;2022-07-03T13:34:13;0.73;;;0.50;;
25615;SDS011;13482;48.234;13.006;2022-07-03T13:36:40;1.13;;;0.60;;
25615;SDS011;13482;48.234;13.006;2022-07-03T13:39:07;0.65;;;0.52;;
25615;SDS011;13482;48.234;13.006;2022-07-03T13:41:35;0.70;;;0.60;;
25615;SDS011;13482;48.234;13.006;2022-07-03T13:44:06;1.13;;;0.50;;
25615;SDS011;13482;48.234;13.006;2022-07-03T13:46:33;0.77;;;0.60;;
25615;SDS011;13482;48.234;13.006;2022-07-03T13:49:00;0.75;;;0.60;;
25615;SDS011;13482;48.234;13.006;2022-07-03T13:51:28;0.80;;;0.50;;
25615;SDS011;13482;48.234;13.006;2022-07-03T13:53:55;1.05;;;0.55;;
25615;SDS011;13482;48.234;13.006;2022-07-03T13:56:23;2.17;;;0.60;;
25615;SDS011;13482;48.234;13.006;2022-07-03T13:58:50;0.60;;;0.50;;
25615;SDS011;13482;48.234;13.006;2022-07-03T14:01:18;0.95;;;0.50;;
25615;SDS011;13482;48.234;13.006;2022-07-03T14:03:47;0.90;;;0.55;;
25615;SDS011;13482;48.234;13.006;2022-07-03T14:06:15;0.82;;;0.60;;
25615;SDS011;13482;48.234;13.006;2022-07-03T14:08:43;0.70;;;0.50;;
25615;SDS011;13482;48.234;13.006;2022-07-03T14:11:10;0.75;;;0.50;;
25615;SDS011;13482;48.234;13.006;2022-07-03T14:13:37;0.70;;;0.50;;
25615;SDS011;13482;48.234;13.006;2022-07-03T14:16:04;0.77;;;0.52;;
25615;SDS011;13482;48.234;13.006;2022-07-03T14:18:32;0.55;;;0.50;;
25615;SDS011;13482;48.234;13.006;2022-07-03T14:20:59;0.60;;;0.50;;
25615;SDS011;13482;48.234;13.006;2022-07-03T14:23:26;1.25;;;0.65;;
25615;SDS011;13482;48.234;13.006;2022-07-03T14:25:53;1.08;;;0.47;;
25615;SDS011;13482;48.234;13.006;2022-07-03T14:28:20;0.77;;;0.60;;
25615;SDS011;13482;48.234;13.006;2022-07-03T14:31:12;1.10;;;0.60;;
25615;SDS011;13482;48.234;13.006;2022-07-03T14:34:03;0.52;;;0.43;;
25615;SDS011;13482;48.234;13.006;2022-07-03T14:36:30;0.45;;;0.45;;
25615;SDS011;13482;48.234;13.006;2022-07-03T14:39:13;0.43;;;0.43;;
25615;SDS011;13482;48.234;13.006;2022-07-03T14:41:41;0.73;;;0.57;;
25615;SDS011;13482;48.234;13.006;2022-07-03T14:44:09;0.77;;;0.60;;
25615;SDS011;13482;48.234;13.006;2022-07-03T14:46:39;0.95;;;0.60;;
25615;SDS011;13482;48.234;13.006;2022-07-03T14:49:06;1.13;;;0.50;;
25615;SDS011;13482;48.234;13.006;2022-07-03T14:51:33;0.55;;;0.40;;
25615;SDS011;13482;48.234;13.006;2022-07-03T14:54:01;0.52;;;0.50;;
25615;SDS011;13482;48.234;13.006;2022-07-03T14:56:28;0.80;;;0.43;;
25615;SDS011;13482;48.234;13.006;2022-07-03T14:58:56;0.70;;;0.60;;
25615;SDS011;13482;48.234;13.006;2022-07-03T15:01:28;1.13;;;0.50;;
25615;SDS011;13482;48.234;13.006;2022-07-03T15:03:59;0.70;;;0.47;;
25615;SDS011;13482;48.234;13.006;2022-07-03T15:06:28;0.70;;;0.40;;
25615;SDS011;13482;48.234;13.006;2022-07-03T15:11:32;0.57;;;0.50;;
25615;SDS011;13482;48.234;13.006;2022-07-03T15:14:25;1.02;;;0.65;;
25615;SDS011;13482;48.234;13.006;2022-07-03T15:16:53;0.60;;;0.55;;
25615;SDS011;13482;48.234;13.006;2022-07-03T15:19:20;0.77;;;0.60;;
25615;SDS011;13482;48.234;13.006;2022-07-03T15:21:51;0.70;;;0.50;;
25615;SDS011;13482;48.234;13.006;2022-07-03T15:24:18;2.50;;;0.68;;
25615;SDS011;13482;48.234;13.006;2022-07-03T15:26:52;0.93;;;0.40;;
25615;SDS011;13482;48.234;13.006;2022-07-03T15:29:20;0.75;;;0.52;;
25615;SDS011;13482;48.234;13.006;2022-07-03T15:31:47;0.80;;;0.60;;
25615;SDS011;13482;48.234;13.006;2022-07-03T15:34:15;1.25;;;0.50;;
25615;SDS011;13482;48.234;13.006;2022-07-03T15:36:43;0.95;;;0.70;;
25615;SDS011;13482;48.234;13.006;2022-07-03T15:39:41;1.20;;;0.60;;
25615;SDS011;13482;48.234;13.006;2022-07-03T15:45:29;0.73;;;0.50;;
25615;SDS011;13482;48.234;13.006;2022-07-03T15:48:34;1.08;;;0.38;;
25615;SDS011;13482;48.234;13.006;2022-07-03T15:51:36;0.50;;;0.40;;
25615;SDS011;13482;48.234;13.006;2022-07-03T15:54:06;0.82;;;0.47;;
25615;SDS011;13482;48.234;13.006;2022-07-03T15:56:47;1.35;;;0.55;;
25615;SDS011;13482;48.234;13.006;2022-07-03T15:59:18;0.87;;;0.50;;
25615;SDS011;13482;48.234;13.006;2022-07-03T16:01:51;0.80;;;0.50;;
25615;SDS011;13482;48.234;13.006;2022-07-03T16:07:30;0.60;;;0.50;;
25615;SDS011;13482;48.234;13.006;2022-07-03T16:10:06;0.68;;;0.52;;
25615;SDS011;13482;48.234;13.006;2022-07-03T16:12:37;1.20;;;0.50;;
25615;SDS011;13482;48.234;13.006;2022-07-03T16:15:06;0.98;;;0.60;;
25615;SDS011;13482;48.234;13.006;2022-07-03T16:17:34;0.57;;;0.50;;
25615;SDS011;13482;48.234;13.006;2022-07-03T16:20:05;0.77;;;0.50;;
25615;SDS011;13482;48.234;13.006;2022-07-03T16:22:34;0.90;;;0.50;;
25615;SDS011;13482;48.234;13.006;2022-07-03T16:25:03;1.08;;;0.35;;
25615;SDS011;13482;48.234;13.006;2022-07-03T16:27:34;0.47;;;0.45;;
25615;SDS011;13482;48.234;13.006;2022-07-03T16:30:01;1.02;;;0.57;;
25615;SDS011;13482;48.234;13.006;2022-07-03T16:32:34;0.40;;;0.35;;
25615;SDS011;13482;48.234;13.006;2022-07-03T16:38:30;0.45;;;0.45;;
25615;SDS011;13482;48.234;13.006;2022-07-03T16:41:04;1.05;;;0.52;;
25615;SDS011;13482;48.234;13.006;2022-07-03T16:43:32;0.73;;;0.50;;
25615;SDS011;13482;48.234;13.006;2022-07-03T16:46:10;0.55;;;0.43;;
25615;SDS011;13482;48.234;13.006;2022-07-03T16:48:48;0.90;;;0.43;;
25615;SDS011;13482;48.234;13.006;2022-07-03T16:51:17;2.05;;;0.40;;